createdAt,value
2023-03-23T15:58:13.081Z,2.55
2023-03-23T16:00:43.945Z,2.05
2023-03-23T16:03:21.216Z,2.10
2023-03-23T16:05:50.434Z,2.53
2023-03-23T16:08:18.350Z,2.47
2023-03-23T16:10:46.394Z,2.78
2023-03-23T16:13:14.010Z,2.95
2023-03-23T16:15:43.200Z,2.83
2023-03-23T16:18:21.575Z,2.67
2023-03-23T16:20:50.479Z,2.55
2023-03-23T16:23:18.551Z,2.67
2023-03-23T16:25:46.163Z,2.92
2023-03-23T16:28:15.387Z,2.10
2023-03-23T16:30:45.514Z,2.40
2023-03-23T16:33:13.455Z,2.65
2023-03-23T16:35:41.960Z,2.15
2023-03-23T16:38:16.320Z,2.50
2023-03-23T16:40:46.388Z,3.00
2023-03-23T16:43:14.059Z,2.90
2023-03-23T16:45:45.864Z,2.72
2023-03-23T16:48:16.800Z,2.85
2023-03-23T16:50:45.231Z,3.67
2023-03-23T16:53:13.289Z,2.30
2023-03-23T16:55:41.186Z,2.65
2023-03-23T16:58:17.076Z,2.28
2023-03-23T17:00:50.822Z,2.25
2023-03-23T17:03:21.072Z,2.42
2023-03-23T17:05:51.585Z,2.67
2023-03-23T17:08:21.180Z,2.58
2023-03-23T17:10:49.816Z,2.80
2023-03-23T17:13:17.985Z,3.00
2023-03-23T17:15:47.510Z,3.30
2023-03-23T17:18:16.391Z,2.63
2023-03-23T17:20:44.575Z,2.72
2023-03-23T17:23:12.663Z,2.45
2023-03-23T17:25:40.586Z,3.30
2023-03-23T17:28:08.386Z,3.25
2023-03-23T17:30:36.148Z,3.10
2023-03-23T17:33:04.022Z,3.50
2023-03-23T17:35:33.940Z,3.00
2023-03-23T17:38:01.992Z,3.60
2023-03-23T17:40:29.826Z,3.47
2023-03-23T17:42:58.644Z,3.08
2023-03-23T17:45:26.346Z,3.92
2023-03-23T17:47:54.089Z,3.08
2023-03-23T17:50:22.161Z,3.40
2023-03-23T17:52:49.991Z,2.65
2023-03-23T17:55:17.710Z,3.10
2023-03-23T17:57:46.084Z,3.00
2023-03-23T18:00:14.537Z,3.42
2023-03-23T18:02:42.307Z,3.50
2023-03-23T18:05:11.797Z,3.25
2023-03-23T18:07:39.770Z,3.13
2023-03-23T18:10:12.484Z,3.08
2023-03-23T18:12:41.699Z,3.50
2023-03-23T18:15:11.073Z,3.03
2023-03-23T18:17:38.946Z,3.03
2023-03-23T18:20:08.766Z,3.20
2023-03-23T18:22:37.204Z,3.13
2023-03-23T18:25:05.596Z,3.13
2023-03-23T18:27:34.832Z,2.92
2023-03-23T18:30:03.162Z,3.25
2023-03-23T18:32:31.497Z,3.08
2023-03-23T18:34:59.143Z,3.08
2023-03-23T18:37:27.006Z,3.03
2023-03-23T18:39:55.244Z,3.20
2023-03-23T18:42:22.965Z,2.65
2023-03-23T18:44:50.931Z,3.35
2023-03-23T18:47:18.608Z,3.13
2023-03-23T18:49:47.387Z,3.13
2023-03-23T18:52:15.214Z,3.15
2023-03-23T18:54:45.238Z,3.33
2023-03-23T18:57:13.056Z,3.13
2023-03-23T18:59:43.304Z,2.72
2023-03-23T19:02:13.127Z,2.85
2023-03-23T19:04:40.774Z,2.92
2023-03-23T19:07:09.019Z,3.05
2023-03-23T19:09:37.077Z,3.05
2023-03-23T19:12:05.310Z,3.30
2023-03-23T19:14:35.463Z,3.45
2023-03-23T19:17:03.739Z,3.10
2023-03-23T19:19:31.353Z,2.83
2023-03-23T19:22:00.336Z,2.90
2023-03-23T19:24:30.333Z,2.60
2023-03-23T19:26:58.228Z,2.67
2023-03-23T19:29:27.431Z,2.92
2023-03-23T19:31:57.432Z,2.53
2023-03-23T19:34:28.127Z,3.15
2023-03-23T19:37:03.246Z,3.73
2023-03-23T19:39:34.584Z,3.17
2023-03-23T19:42:04.297Z,3.20
2023-03-23T19:44:34.541Z,3.42
2023-03-23T19:47:02.922Z,3.20
2023-03-23T19:49:30.951Z,3.78
2023-03-23T19:52:06.432Z,3.05
2023-03-23T19:54:36.939Z,2.97
2023-03-23T19:57:06.256Z,3.35
2023-03-23T19:59:34.200Z,2.92
2023-03-23T20:02:02.269Z,2.92
2023-03-23T20:04:30.517Z,3.65
2023-03-23T20:06:59.010Z,3.28
2023-03-23T20:09:26.875Z,2.78
2023-03-23T20:11:54.672Z,3.35
2023-03-23T20:14:22.315Z,3.00
2023-03-23T20:16:50.063Z,2.97
2023-03-23T20:19:17.725Z,2.83
2023-03-23T20:21:45.777Z,3.17
2023-03-23T20:24:13.843Z,3.15
2023-03-23T20:26:43.690Z,3.35
2023-03-23T20:29:11.748Z,2.60
2023-03-23T20:31:41.863Z,2.97
2023-03-23T20:34:14.728Z,2.97
2023-03-23T20:36:45.712Z,3.25
2023-03-23T20:39:23.217Z,2.85
2023-03-23T20:41:54.618Z,2.85
2023-03-23T20:44:25.089Z,2.83
2023-03-23T20:46:53.919Z,2.45
2023-03-23T20:49:22.564Z,2.70
2023-03-23T20:51:52.014Z,3.17
2023-03-23T20:54:22.498Z,2.80
2023-03-23T20:56:51.037Z,2.60
2023-03-23T20:59:20.149Z,3.17
2023-03-23T21:01:50.544Z,2.88
2023-03-23T21:04:22.961Z,2.50
2023-03-23T21:06:52.644Z,2.50
2023-03-23T21:09:20.701Z,2.75
2023-03-23T21:11:48.969Z,2.85
2023-03-23T21:14:17.062Z,2.70
2023-03-23T21:16:44.974Z,2.50
2023-03-23T21:19:13.449Z,2.58
2023-03-23T21:21:55.805Z,2.83
2023-03-23T21:24:31.404Z,2.65
2023-03-23T21:27:02.796Z,2.28
2023-03-23T21:29:30.811Z,2.78
2023-03-23T21:34:30.616Z,2.40
2023-03-23T21:36:58.348Z,2.83
2023-03-23T21:39:26.300Z,2.58
2023-03-23T21:41:54.161Z,2.60
2023-03-23T21:44:22.124Z,2.50
2023-03-23T21:46:52.275Z,2.30
2023-03-23T21:49:20.201Z,2.90
2023-03-23T21:51:49.463Z,2.17
2023-03-23T21:54:17.400Z,2.30
2023-03-23T21:56:46.356Z,2.38
2023-03-23T21:59:14.269Z,2.15
2023-03-23T22:01:42.090Z,2.47
2023-03-23T22:04:10.073Z,2.08
2023-03-23T22:06:37.684Z,2.42
2023-03-23T22:09:05.701Z,2.03
2023-03-23T22:11:33.806Z,2.03
2023-03-23T22:14:02.341Z,2.50
2023-03-23T22:16:31.414Z,2.50
2023-03-23T22:19:00.514Z,2.63
2023-03-23T22:21:29.254Z,2.15
2023-03-23T22:24:00.696Z,2.13
2023-03-23T22:26:30.317Z,2.13
2023-03-23T22:29:00.351Z,2.65
2023-03-23T22:31:34.225Z,2.00
2023-03-23T22:34:02.349Z,2.70
2023-03-23T22:36:33.177Z,2.17
2023-03-23T22:39:02.141Z,2.70
2023-03-23T22:41:35.539Z,2.10
2023-03-23T22:44:06.159Z,2.33
2023-03-23T22:46:33.784Z,2.20
2023-03-23T22:49:01.983Z,2.22
2023-03-23T22:51:30.281Z,2.20
2023-03-23T22:53:58.207Z,2.22
2023-03-23T22:56:27.171Z,2.22
2023-03-23T22:58:54.883Z,2.42
2023-03-23T23:01:23.646Z,1.80
2023-03-23T23:03:51.694Z,2.55
2023-03-23T23:06:20.711Z,2.50
2023-03-23T23:08:49.232Z,2.70
2023-03-23T23:11:20.181Z,2.50
2023-03-23T23:13:48.885Z,2.20
2023-03-23T23:16:18.649Z,2.38
2023-03-23T23:18:49.765Z,1.95
2023-03-23T23:21:21.304Z,2.70
2023-03-23T23:23:51.233Z,2.50
2023-03-23T23:26:21.480Z,2.55
2023-03-23T23:28:50.773Z,2.33
2023-03-23T23:31:32.449Z,2.60
2023-03-23T23:34:02.730Z,2.55
2023-03-23T23:36:32.408Z,2.78
2023-03-23T23:39:03.547Z,2.90
2023-03-23T23:41:31.788Z,2.75
2023-03-23T23:44:00.377Z,2.58
2023-03-23T23:46:30.597Z,2.47
2023-03-23T23:49:00.332Z,2.50
2023-03-23T23:51:29.326Z,2.70
2023-03-23T23:53:59.207Z,2.72
2023-03-23T23:56:29.389Z,2.50
2023-03-23T23:58:58.266Z,2.63
